createdAt,value
2022-10-23T00:00:34.509Z,98980.60
2022-10-23T00:03:26.200Z,98987.05
2022-10-23T00:05:57.602Z,98988.73
2022-10-23T00:08:29.006Z,98994.31
2022-10-23T00:11:00.475Z,98995.53
2022-10-23T00:13:31.964Z,98993.77
2022-10-23T00:16:03.427Z,98993.66
2022-10-23T00:18:36.588Z,98997.58
2022-10-23T00:21:10.565Z,98998.63
2022-10-23T00:23:42.791Z,98996.58
2022-10-23T00:26:15.900Z,99003.74
2022-10-23T00:28:50.790Z,98999.79
2022-10-23T00:31:23.760Z,99000.60
2022-10-23T00:33:55.310Z,99004.23
2022-10-23T00:36:26.812Z,99001.48
2022-10-23T00:38:58.347Z,99001.42
2022-10-23T00:41:32.444Z,99001.10
2022-10-23T00:44:31.231Z,98996.02
2022-10-23T00:47:02.694Z,99002.98
2022-10-23T00:49:35.574Z,99006.16
2022-10-23T00:52:09.375Z,99001.92
2022-10-23T00:54:44.295Z,98998.22
2022-10-23T00:57:17.024Z,98998.95
2022-10-23T00:59:48.592Z,98996.02
2022-10-23T01:02:20.331Z,98996.09
2022-10-23T01:05:16.936Z,98996.92
2022-10-23T01:07:57.842Z,98999.48
2022-10-23T01:10:38.247Z,99001.27
2022-10-23T01:13:18.040Z,99003.77
2022-10-23T01:15:55.369Z,99009.85
2022-10-23T01:18:52.907Z,99015.14
2022-10-23T01:21:47.411Z,99021.63
2022-10-23T01:24:23.429Z,99019.91
2022-10-23T01:27:08.275Z,99024.48
2022-10-23T01:29:45.626Z,99029.45
2022-10-23T01:32:23.610Z,99031.14
2022-10-23T01:35:02.884Z,99028.35
2022-10-23T01:37:41.130Z,99029.08
2022-10-23T01:40:21.535Z,99029.41
2022-10-23T01:43:18.300Z,99025.70
2022-10-23T01:45:54.150Z,99024.11
2022-10-23T01:48:31.428Z,99026.20
2022-10-23T01:51:09.311Z,99031.61
2022-10-23T01:53:44.761Z,99034.25
2022-10-23T01:56:23.125Z,99032.98
2022-10-23T01:58:58.849Z,99030.67
2022-10-23T02:01:34.211Z,99029.85
2022-10-23T02:06:55.475Z,99031.44
2022-10-23T02:09:27.346Z,99034.85
2022-10-23T02:12:05.418Z,99031.31
2022-10-23T02:14:45.662Z,99028.91
2022-10-23T02:17:30.302Z,99023.13
2022-10-23T02:20:14.682Z,99024.80
2022-10-23T02:22:54.213Z,99030.85
2022-10-23T02:25:32.332Z,99034.45
2022-10-23T02:28:11.870Z,99037.30
2022-10-23T02:30:47.429Z,99037.38
2022-10-23T02:33:20.336Z,99038.59
2022-10-23T02:35:52.496Z,99045.36
2022-10-23T02:38:33.850Z,99045.00
2022-10-23T02:41:15.848Z,99046.09
2022-10-23T02:43:57.368Z,99050.28
2022-10-23T02:46:37.654Z,99051.21
2022-10-23T02:49:15.661Z,99052.80
2022-10-23T02:51:56.569Z,99058.30
2022-10-23T02:54:41.696Z,99055.83
2022-10-23T02:57:21.325Z,99061.10
2022-10-23T03:00:02.442Z,99062.17
2022-10-23T03:02:40.499Z,99061.81
2022-10-23T03:05:16.094Z,99063.42
2022-10-23T03:07:52.093Z,99059.73
2022-10-23T03:10:23.789Z,99058.76
2022-10-23T03:12:55.295Z,99057.55
2022-10-23T03:15:28.355Z,99052.59
2022-10-23T03:18:02.791Z,99057.19
2022-10-23T03:20:36.024Z,99055.88
2022-10-23T03:23:07.569Z,99059.81
2022-10-23T03:25:38.957Z,99062.19
2022-10-23T03:28:10.414Z,99062.65
2022-10-23T03:30:41.922Z,99062.40
2022-10-23T03:33:13.342Z,99065.62
2022-10-23T03:35:44.772Z,99073.70
2022-10-23T03:38:16.400Z,99070.55
2022-10-23T03:40:47.872Z,99075.41
2022-10-23T03:43:19.613Z,99068.19
2022-10-23T03:45:52.456Z,99073.44
2022-10-23T03:48:26.481Z,99076.66
2022-10-23T03:50:57.955Z,99076.36
2022-10-23T03:54:02.097Z,99076.95
2022-10-23T03:56:36.351Z,99077.11
2022-10-23T03:59:21.589Z,99077.81
2022-10-23T04:01:56.221Z,99078.44
2022-10-23T04:04:31.024Z,99082.86
2022-10-23T04:07:02.500Z,99082.16
2022-10-23T04:09:34.039Z,99080.27
2022-10-23T04:12:09.285Z,99079.74
2022-10-23T04:14:45.579Z,99080.23
2022-10-23T04:17:19.679Z,99084.16
2022-10-23T04:19:51.149Z,99081.23
2022-10-23T04:22:24.800Z,99077.95
2022-10-23T04:24:59.852Z,99063.33
2022-10-23T04:27:31.416Z,99057.61
2022-10-23T04:30:23.147Z,99057.23
2022-10-23T04:33:04.855Z,99054.55
2022-10-23T04:35:36.359Z,99055.55
2022-10-23T04:38:53.527Z,99059.30
2022-10-23T04:41:25.021Z,99062.14
2022-10-23T04:44:16.706Z,99062.83
2022-10-23T04:46:48.197Z,99059.19
2022-10-23T04:49:19.710Z,99056.55
2022-10-23T04:51:52.417Z,99057.90
2022-10-23T04:54:25.828Z,99060.73
2022-10-23T04:56:57.445Z,99061.35
2022-10-23T04:59:28.880Z,99061.16
2022-10-23T05:02:23.022Z,99062.64
2022-10-23T05:04:52.690Z,99057.13
2022-10-23T05:07:27.229Z,99059.23
2022-10-23T05:09:58.697Z,99056.82
2022-10-23T05:12:34.662Z,99060.30
2022-10-23T05:15:07.907Z,99058.54
2022-10-23T05:17:45.864Z,99063.85
2022-10-23T05:20:21.252Z,99065.70
2022-10-23T05:22:56.862Z,99066.25
2022-10-23T05:25:29.324Z,99061.98
2022-10-23T05:28:03.097Z,99065.13
2022-10-23T05:30:34.565Z,99063.00
2022-10-23T05:33:21.472Z,99068.27
2022-10-23T05:35:53.319Z,99070.39
2022-10-23T05:38:26.297Z,99068.84
2022-10-23T05:41:00.716Z,99077.15
2022-10-23T05:43:32.772Z,99075.90
2022-10-23T05:46:07.367Z,99081.13
2022-10-23T05:48:55.348Z,99088.71
2022-10-23T05:51:29.668Z,99083.63
2022-10-23T05:54:01.125Z,99083.48
2022-10-23T05:56:32.602Z,99091.92
2022-10-23T05:59:04.175Z,99096.24
2022-10-23T06:01:35.788Z,99097.20
2022-10-23T06:04:07.660Z,99102.48
2022-10-23T06:06:39.116Z,99099.14
2022-10-23T06:09:10.608Z,99104.37
2022-10-23T06:11:42.809Z,99107.52
2022-10-23T06:14:14.426Z,99115.31
2022-10-23T06:17:08.821Z,99119.52
2022-10-23T06:19:44.595Z,99123.12
2022-10-23T06:24:49.653Z,99131.55
2022-10-23T06:27:22.732Z,99130.77
2022-10-23T06:29:54.136Z,99132.77
2022-10-23T06:32:25.821Z,99132.95
2022-10-23T06:35:00.319Z,99142.51
2022-10-23T06:37:31.795Z,99137.75
2022-10-23T06:40:03.255Z,99136.02
2022-10-23T06:42:34.695Z,99129.97
2022-10-23T06:45:07.590Z,99127.73
2022-10-23T06:47:39.015Z,99136.15
2022-10-23T06:50:13.216Z,99146.69
2022-10-23T06:52:47.804Z,99147.28
2022-10-23T06:55:20.385Z,99146.52
2022-10-23T06:57:51.852Z,99150.82
2022-10-23T07:00:24.024Z,99150.98
2022-10-23T07:02:55.957Z,99152.35
2022-10-23T07:05:27.351Z,99149.69
2022-10-23T07:07:58.954Z,99143.10
2022-10-23T07:10:30.457Z,99141.20
2022-10-23T07:13:03.171Z,99144.12
2022-10-23T07:15:34.586Z,99145.67
2022-10-23T07:18:14.425Z,99142.63
2022-10-23T07:20:49.479Z,99141.44
2022-10-23T07:23:21.144Z,99141.50
2022-10-23T07:25:52.962Z,99142.78
2022-10-23T07:28:24.649Z,99147.19
2022-10-23T07:31:03.013Z,99137.82
2022-10-23T07:33:34.794Z,99132.23
2022-10-23T07:36:10.314Z,99127.06
2022-10-23T07:38:42.114Z,99141.45
2022-10-23T07:41:15.459Z,99148.52
2022-10-23T07:43:47.238Z,99147.23
2022-10-23T07:46:19.022Z,99146.10
2022-10-23T07:48:50.667Z,99146.39
2022-10-23T07:51:24.696Z,99144.43
2022-10-23T07:53:56.389Z,99143.48
2022-10-23T07:56:30.279Z,99139.65
2022-10-23T07:59:00.287Z,99131.55
2022-10-23T08:01:35.353Z,99126.80
2022-10-23T08:04:07.954Z,99130.61
2022-10-23T08:06:39.643Z,99136.10
2022-10-23T08:09:11.379Z,99137.14
2022-10-23T08:11:43.504Z,99135.36
2022-10-23T08:14:15.203Z,99134.70
2022-10-23T08:16:46.879Z,99143.34
2022-10-23T08:19:18.630Z,99147.84
2022-10-23T08:21:55.939Z,99147.04
2022-10-23T08:24:27.759Z,99144.43
2022-10-23T08:26:59.966Z,99149.12
2022-10-23T08:29:31.729Z,99155.67
2022-10-23T08:32:03.716Z,99155.08
2022-10-23T08:34:38.663Z,99153.66
2022-10-23T08:37:10.379Z,99154.84
2022-10-23T08:39:42.218Z,99151.73
2022-10-23T08:42:24.488Z,99158.41
2022-10-23T08:45:05.089Z,99159.14
2022-10-23T08:47:43.519Z,99160.27
2022-10-23T08:50:25.803Z,99156.91
2022-10-23T08:53:04.020Z,99160.52
2022-10-23T08:55:53.244Z,99162.36
2022-10-23T08:58:33.204Z,99163.17
2022-10-23T09:01:22.263Z,99165.83
2022-10-23T09:03:54.156Z,99169.16
2022-10-23T09:06:38.236Z,99176.48
2022-10-23T09:09:17.885Z,99176.60
2022-10-23T09:11:57.031Z,99178.20
2022-10-23T09:14:51.609Z,99188.27
2022-10-23T09:17:27.551Z,99194.58
2022-10-23T09:20:12.272Z,99186.15
2022-10-23T09:22:45.901Z,99191.23
2022-10-23T09:25:23.104Z,99192.98
2022-10-23T09:27:59.079Z,99200.95
2022-10-23T09:30:37.447Z,99201.91
2022-10-23T09:33:21.673Z,99202.58
2022-10-23T09:35:59.448Z,99207.08
2022-10-23T09:38:33.707Z,99208.15
2022-10-23T09:41:14.533Z,99206.99
2022-10-23T09:43:46.553Z,99202.14
2022-10-23T09:46:18.228Z,99197.31
2022-10-23T09:49:03.530Z,99197.80
2022-10-23T09:51:42.423Z,99207.23
2022-10-23T09:54:21.288Z,99209.67
2022-10-23T09:56:55.743Z,99216.80
2022-10-23T09:59:31.630Z,99221.56
2022-10-23T10:02:05.317Z,99211.52
2022-10-23T10:04:42.339Z,99207.51
2022-10-23T10:07:22.678Z,99204.92
2022-10-23T10:09:56.608Z,99200.41
2022-10-23T10:12:38.891Z,99206.10
2022-10-23T10:15:21.229Z,99197.75
2022-10-23T10:18:07.886Z,99190.65
2022-10-23T10:20:53.549Z,99182.43
2022-10-23T10:23:34.661Z,99185.27
2022-10-23T10:26:15.215Z,99180.71
2022-10-23T10:29:02.281Z,99182.80
2022-10-23T10:31:52.967Z,99179.05
2022-10-23T10:34:34.855Z,99174.02
2022-10-23T10:37:16.505Z,99163.69
2022-10-23T10:39:58.011Z,99151.00
2022-10-23T10:42:49.014Z,99145.16
2022-10-23T10:45:32.176Z,99140.52
2022-10-23T10:48:19.597Z,99141.29
2022-10-23T10:50:58.260Z,99138.92
2022-10-23T10:53:40.208Z,99134.91
2022-10-23T10:56:18.108Z,99130.46
2022-10-23T10:58:53.877Z,99123.98
2022-10-23T11:01:30.280Z,99125.52
2022-10-23T11:04:12.920Z,99125.66
2022-10-23T11:06:47.431Z,99117.52
2022-10-23T11:09:26.521Z,99112.19
2022-10-23T11:12:00.213Z,99101.05
2022-10-23T11:14:31.739Z,99090.47
2022-10-23T11:17:09.982Z,99088.39
2022-10-23T11:19:46.895Z,99086.42
2022-10-23T11:22:26.567Z,99080.20
2022-10-23T11:25:23.241Z,99079.05
2022-10-23T11:28:17.690Z,99075.78
2022-10-23T11:31:11.763Z,99071.25
2022-10-23T11:34:03.644Z,99071.13
2022-10-23T11:36:51.596Z,99060.14
2022-10-23T11:39:27.120Z,99060.14
2022-10-23T11:42:13.143Z,99057.37
2022-10-23T11:44:47.161Z,99056.05
2022-10-23T11:47:40.292Z,99057.21
2022-10-23T11:50:27.765Z,99051.66
2022-10-23T11:53:14.814Z,99046.28
2022-10-23T11:56:04.865Z,99040.80
2022-10-23T11:58:47.917Z,99030.69
2022-10-23T12:01:33.264Z,99024.77
2022-10-23T12:04:17.372Z,99017.61
2022-10-23T12:06:48.818Z,99010.59
2022-10-23T12:09:36.088Z,99003.08
2022-10-23T12:12:19.236Z,98999.80
2022-10-23T12:14:52.400Z,98998.13
2022-10-23T12:17:36.820Z,98994.64
2022-10-23T12:20:30.806Z,98991.46
2022-10-23T12:23:25.979Z,98993.55
2022-10-23T12:26:26.786Z,98990.83
2022-10-23T12:29:07.891Z,98994.10
2022-10-23T12:31:52.483Z,98998.77
2022-10-23T12:34:43.937Z,99002.77
2022-10-23T12:37:46.168Z,99003.45
2022-10-23T12:40:17.950Z,99000.70
2022-10-23T12:42:55.889Z,99000.37
2022-10-23T12:45:30.188Z,98998.98
2022-10-23T12:48:01.907Z,98993.35
2022-10-23T12:50:35.689Z,98988.77
2022-10-23T12:53:18.123Z,98981.78
2022-10-23T12:55:58.271Z,98981.59
2022-10-23T12:58:33.418Z,98974.77
2022-10-23T13:01:08.435Z,98973.13
2022-10-23T13:03:42.424Z,98971.57
2022-10-23T13:06:14.656Z,98978.36
2022-10-23T13:08:48.291Z,98978.92
2022-10-23T13:11:22.698Z,98981.86
2022-10-23T13:13:54.419Z,98977.71
2022-10-23T13:16:27.865Z,98974.61
2022-10-23T13:18:59.561Z,98971.27
2022-10-23T13:21:32.678Z,98972.38
2022-10-23T13:24:04.577Z,98971.69
2022-10-23T13:26:42.904Z,98971.34
2022-10-23T13:29:23.182Z,98970.41
2022-10-23T13:31:55.038Z,98970.45
2022-10-23T13:34:29.014Z,98968.43
2022-10-23T13:37:04.743Z,98960.52
2022-10-23T13:39:36.984Z,98958.52
2022-10-23T13:42:16.685Z,98957.86
2022-10-23T13:44:49.123Z,98947.25
2022-10-23T13:47:21.683Z,98948.15
2022-10-23T13:49:53.364Z,98950.12
2022-10-23T13:52:25.257Z,98947.65
2022-10-23T13:54:56.937Z,98949.23
2022-10-23T13:57:28.881Z,98944.66
2022-10-23T14:00:00.519Z,98947.02
2022-10-23T14:02:32.412Z,98943.07
2022-10-23T14:05:05.202Z,98940.54
2022-10-23T14:07:37.058Z,98940.52
2022-10-23T14:10:09.872Z,98938.15
2022-10-23T14:12:45.858Z,98936.88
2022-10-23T14:15:17.880Z,98932.10
2022-10-23T14:17:49.629Z,98931.80
2022-10-23T14:20:24.342Z,98935.60
2022-10-23T14:22:57.825Z,98930.73
2022-10-23T14:25:29.627Z,98937.95
2022-10-23T14:28:01.328Z,98935.31
2022-10-23T14:30:33.866Z,98936.97
2022-10-23T14:33:05.829Z,98933.08
2022-10-23T14:35:40.195Z,98933.14
2022-10-23T14:38:11.925Z,98929.89
2022-10-23T14:40:43.635Z,98930.05
2022-10-23T14:43:15.425Z,98933.79
2022-10-23T14:45:47.106Z,98930.02
2022-10-23T14:48:18.731Z,98928.45
2022-10-23T14:50:51.812Z,98923.16
2022-10-23T14:53:23.458Z,98921.33
2022-10-23T14:55:55.068Z,98919.30
2022-10-23T14:58:26.967Z,98920.38
2022-10-23T15:01:01.941Z,98918.59
2022-10-23T15:03:34.368Z,98919.04
2022-10-23T15:06:07.646Z,98914.34
2022-10-23T15:08:39.368Z,98913.44
2022-10-23T15:11:12.648Z,98915.95
2022-10-23T15:13:45.352Z,98912.43
2022-10-23T15:16:17.239Z,98910.17
2022-10-23T15:18:49.006Z,98908.77
2022-10-23T15:21:21.564Z,98902.83
2022-10-23T15:23:55.015Z,98904.41
2022-10-23T15:26:26.983Z,98906.02
2022-10-23T15:29:01.451Z,98907.27
2022-10-23T15:31:46.194Z,98904.20
2022-10-23T15:34:19.980Z,98908.77
2022-10-23T15:36:52.349Z,98911.17
2022-10-23T15:39:26.905Z,98908.02
2022-10-23T15:41:59.789Z,98908.92
2022-10-23T15:44:33.994Z,98910.06
2022-10-23T15:47:05.851Z,98907.37
2022-10-23T15:49:40.373Z,98907.43
2022-10-23T15:52:12.623Z,98910.01
2022-10-23T15:54:44.235Z,98913.32
2022-10-23T15:57:15.906Z,98913.90
2022-10-23T15:59:48.014Z,98910.55
2022-10-23T16:02:20.001Z,98916.88
2022-10-23T16:04:52.017Z,98913.30
2022-10-23T16:07:23.937Z,98920.13
2022-10-23T16:09:55.642Z,98923.20
2022-10-23T16:12:27.491Z,98923.08
2022-10-23T16:15:01.186Z,98923.37
2022-10-23T16:17:32.932Z,98924.92
2022-10-23T16:20:04.857Z,98928.11
2022-10-23T16:22:40.152Z,98931.48
2022-10-23T16:25:14.927Z,98930.88
2022-10-23T16:27:47.651Z,98937.98
2022-10-23T16:30:21.758Z,98942.09
2022-10-23T16:32:54.963Z,98944.02
2022-10-23T16:35:26.812Z,98943.77
2022-10-23T16:37:58.542Z,98950.70
2022-10-23T16:40:30.313Z,98946.84
2022-10-23T16:43:02.023Z,98948.28
2022-10-23T16:45:37.001Z,98952.01
2022-10-23T16:48:09.989Z,98947.14
2022-10-23T16:50:42.772Z,98950.41
2022-10-23T16:53:14.524Z,98951.48
2022-10-23T16:55:46.224Z,98952.42
2022-10-23T16:58:18.067Z,98951.52
2022-10-23T17:00:58.743Z,98948.52
2022-10-23T17:03:30.666Z,98951.52
2022-10-23T17:06:06.183Z,98958.56
2022-10-23T17:08:40.859Z,98957.67
2022-10-23T17:11:15.284Z,98962.00
2022-10-23T17:13:50.400Z,98963.89
2022-10-23T17:16:26.559Z,98964.70
2022-10-23T17:18:58.368Z,98970.83
2022-10-23T17:21:34.980Z,98970.33
2022-10-23T17:24:08.268Z,98970.79
2022-10-23T17:26:40.600Z,98966.63
2022-10-23T17:29:16.124Z,98963.26
2022-10-23T17:31:50.174Z,98958.42
2022-10-23T17:34:23.444Z,98963.30
2022-10-23T17:36:57.055Z,98966.64
2022-10-23T17:39:30.948Z,98964.56
2022-10-23T17:42:00.893Z,98963.10
2022-10-23T17:44:32.451Z,98955.08
2022-10-23T17:47:04.055Z,98951.54
2022-10-23T17:49:35.525Z,98950.16
2022-10-23T17:52:10.246Z,98943.73
2022-10-23T17:54:43.187Z,98943.36
2022-10-23T17:57:14.587Z,98940.72
2022-10-23T17:59:46.187Z,98935.95
2022-10-23T18:02:17.775Z,98937.15
2022-10-23T18:04:49.286Z,98927.81
2022-10-23T18:07:20.706Z,98926.95
2022-10-23T18:09:52.775Z,98924.31
2022-10-23T18:12:24.370Z,98924.17
2022-10-23T18:14:56.366Z,98924.73
2022-10-23T18:17:27.708Z,98921.66
2022-10-23T18:20:01.978Z,98922.66
2022-10-23T18:22:35.663Z,98924.25
2022-10-23T18:25:08.469Z,98923.27
2022-10-23T18:27:41.468Z,98920.44
2022-10-23T18:30:15.323Z,98922.13
2022-10-23T18:32:45.559Z,98915.28
2022-10-23T18:35:17.278Z,98916.48
2022-10-23T18:37:49.016Z,98917.65
2022-10-23T18:40:24.294Z,98912.08
2022-10-23T18:42:59.516Z,98913.17
2022-10-23T18:45:31.165Z,98909.49
2022-10-23T18:48:03.646Z,98906.33
2022-10-23T18:50:38.303Z,98906.30
2022-10-23T18:53:10.349Z,98916.42
2022-10-23T18:55:49.342Z,98917.98
2022-10-23T18:58:21.465Z,98918.66
2022-10-23T19:00:53.025Z,98913.05
2022-10-23T19:03:24.480Z,98906.89
2022-10-23T19:05:55.987Z,98899.68
2022-10-23T19:08:27.720Z,98894.44
2022-10-23T19:11:00.363Z,98894.29
2022-10-23T19:13:35.263Z,98889.38
2022-10-23T19:16:15.498Z,98889.36
2022-10-23T19:18:51.695Z,98897.47
2022-10-23T19:21:31.340Z,98902.14
2022-10-23T19:24:08.407Z,98903.48
2022-10-23T19:26:41.062Z,98902.52
2022-10-23T19:29:17.124Z,98900.30
2022-10-23T19:31:50.072Z,98902.46
2022-10-23T19:34:25.141Z,98894.09
2022-10-23T19:36:56.797Z,98894.86
2022-10-23T19:39:28.902Z,98898.35
2022-10-23T19:42:00.956Z,98906.18
2022-10-23T19:44:32.731Z,98906.36
2022-10-23T19:47:04.403Z,98910.45
2022-10-23T19:49:35.859Z,98916.16
2022-10-23T19:52:07.822Z,98910.11
2022-10-23T19:54:41.129Z,98908.32
2022-10-23T19:57:12.722Z,98910.85
2022-10-23T19:59:49.034Z,98912.98
2022-10-23T20:02:21.024Z,98907.61
2022-10-23T20:04:52.773Z,98898.64
2022-10-23T20:07:24.259Z,98892.19
2022-10-23T20:09:55.925Z,98879.14
2022-10-23T20:12:27.910Z,98877.02
2022-10-23T20:14:59.888Z,98874.55
2022-10-23T20:17:31.335Z,98869.46
2022-10-23T20:20:03.073Z,98870.26
2022-10-23T20:22:34.681Z,98867.94
2022-10-23T20:25:07.992Z,98866.64
2022-10-23T20:27:39.449Z,98865.60
2022-10-23T20:30:12.868Z,98867.64
2022-10-23T20:32:44.599Z,98868.35
2022-10-23T20:35:16.260Z,98871.85
2022-10-23T20:37:47.710Z,98867.88
2022-10-23T20:40:19.551Z,98860.30
2022-10-23T20:42:50.996Z,98855.35
2022-10-23T20:45:22.492Z,98852.13
2022-10-23T20:47:54.019Z,98852.77
2022-10-23T20:50:25.732Z,98850.67
2022-10-23T20:52:57.162Z,98847.08
2022-10-23T20:55:28.568Z,98848.88
2022-10-23T20:57:59.977Z,98847.52
2022-10-23T21:00:31.466Z,98847.52
2022-10-23T21:03:04.108Z,98849.33
2022-10-23T21:05:36.697Z,98853.83
2022-10-23T21:08:08.203Z,98860.13
2022-10-23T21:10:47.845Z,98860.75
2022-10-23T21:13:19.270Z,98850.46
2022-10-23T21:15:50.969Z,98842.64
2022-10-23T21:18:27.358Z,98840.54
2022-10-23T21:21:19.485Z,98839.10
2022-10-23T21:23:53.156Z,98838.75
2022-10-23T21:26:25.513Z,98842.79
2022-10-23T21:29:16.894Z,98840.40
2022-10-23T21:31:55.080Z,98838.67
2022-10-23T21:34:28.156Z,98838.11
2022-10-23T21:37:17.840Z,98849.86
2022-10-23T21:39:49.486Z,98857.58
2022-10-23T21:42:21.068Z,98852.05
2022-10-23T21:44:52.489Z,98846.48
2022-10-23T21:47:23.888Z,98841.84
2022-10-23T21:49:55.345Z,98834.39
2022-10-23T21:52:26.939Z,98834.00
2022-10-23T21:54:58.747Z,98829.42
2022-10-23T21:57:33.639Z,98825.94
2022-10-23T22:00:06.011Z,98817.73
2022-10-23T22:02:37.634Z,98819.13
2022-10-23T22:05:10.280Z,98811.54
2022-10-23T22:07:41.925Z,98800.52
2022-10-23T22:10:14.054Z,98795.71
2022-10-23T22:12:45.466Z,98804.08
2022-10-23T22:15:17.065Z,98795.75
2022-10-23T22:17:48.531Z,98795.45
2022-10-23T22:20:20.192Z,98795.16
2022-10-23T22:22:51.711Z,98791.59
2022-10-23T22:25:23.108Z,98791.65
2022-10-23T22:27:54.648Z,98791.81
2022-10-23T22:30:26.167Z,98796.36
2022-10-23T22:32:57.659Z,98801.98
2022-10-23T22:35:30.727Z,98789.96
2022-10-23T22:38:02.285Z,98784.31
2022-10-23T22:40:37.059Z,98780.77
2022-10-23T22:43:08.566Z,98779.14
2022-10-23T22:45:40.134Z,98788.55
2022-10-23T22:48:11.547Z,98789.40
2022-10-23T22:50:42.911Z,98789.63
2022-10-23T22:53:14.341Z,98793.19
2022-10-23T22:55:45.956Z,98797.04
2022-10-23T22:58:17.448Z,98793.86
2022-10-23T23:00:49.456Z,98789.91
2022-10-23T23:03:21.044Z,98787.40
2022-10-23T23:05:52.576Z,98784.80
2022-10-23T23:08:24.045Z,98781.65
2022-10-23T23:10:58.523Z,98779.81
2022-10-23T23:13:30.585Z,98773.44
2022-10-23T23:16:02.603Z,98766.29
2022-10-23T23:18:35.816Z,98766.41
2022-10-23T23:21:08.246Z,98761.40
2022-10-23T23:23:39.637Z,98762.60
2022-10-23T23:26:12.377Z,98759.11
2022-10-23T23:28:44.362Z,98761.16
2022-10-23T23:31:20.260Z,98760.72
2022-10-23T23:33:52.775Z,98767.11
2022-10-23T23:36:27.747Z,98765.92
2022-10-23T23:39:00.095Z,98766.02
2022-10-23T23:41:32.043Z,98766.32
2022-10-23T23:44:03.548Z,98758.61
2022-10-23T23:46:35.012Z,98761.02
2022-10-23T23:49:06.545Z,98765.44
2022-10-23T23:51:38.268Z,98767.09
2022-10-23T23:54:09.745Z,98760.59
2022-10-23T23:56:41.393Z,98753.38
2022-10-23T23:59:12.844Z,98752.90
